sensor_id;sensor_type;location;lat;lon;timestamp;pressure;altitude;pressure_sealevel;temperature;humidity
79540;BME280;68991;52.122;5.406;2023-07-13T00:00:09;101486.50;;;23.44;51.61
79540;BME280;68991;52.122;5.406;2023-07-13T00:07:29;101483.06;;;23.42;51.45
79540;BME280;68991;52.122;5.406;2023-07-13T00:09:57;101477.56;;;23.42;51.46
79540;BME280;68991;52.122;5.406;2023-07-13T00:12:28;101480.41;;;23.40;51.58
79540;BME280;68991;52.122;5.406;2023-07-13T00:15:00;101480.41;;;23.40;51.71
79540;BME280;68991;52.122;5.406;2023-07-13T00:17:27;101482.28;;;23.40;51.64
79540;BME280;68991;52.122;5.406;2023-07-13T00:19:55;101489.66;;;23.39;51.76
79540;BME280;68991;52.122;5.406;2023-07-13T00:22:23;101479.69;;;23.38;51.91
79540;BME280;68991;52.122;5.406;2023-07-13T00:24:53;101484.31;;;23.38;51.66
79540;BME280;68991;52.122;5.406;2023-07-13T00:27:22;101484.31;;;23.38;51.80
79540;BME280;68991;52.122;5.406;2023-07-13T00:29:49;101486.19;;;23.37;51.69
79540;BME280;68991;52.122;5.406;2023-07-13T00:32:15;101485.44;;;23.35;51.87
79540;BME280;68991;52.122;5.406;2023-07-13T00:34:42;101475.50;;;23.34;51.54
79540;BME280;68991;52.122;5.406;2023-07-13T00:37:09;101492.69;;;23.36;51.91
79540;BME280;68991;52.122;5.406;2023-07-13T00:39:37;101481.00;;;23.34;52.01
79540;BME280;68991;52.122;5.406;2023-07-13T00:42:05;101478.25;;;23.34;51.73
79540;BME280;68991;52.122;5.406;2023-07-13T00:44:32;101472.88;;;23.33;51.91
79540;BME280;68991;52.122;5.406;2023-07-13T00:46:59;101472.03;;;23.32;52.02
79540;BME280;68991;52.122;5.406;2023-07-13T00:49:28;101485.75;;;23.32;52.11
79540;BME280;68991;52.122;5.406;2023-07-13T00:51:57;101477.50;;;23.32;52.18
79540;BME280;68991;52.122;5.406;2023-07-13T00:54:29;101485.91;;;23.30;52.22
79540;BME280;68991;52.122;5.406;2023-07-13T00:56:59;101474.06;;;23.30;52.21
79540;BME280;68991;52.122;5.406;2023-07-13T00:59:27;101482.28;;;23.30;52.24
79540;BME280;68991;52.122;5.406;2023-07-13T01:01:54;101481.53;;;23.28;52.06
79540;BME280;68991;52.122;5.406;2023-07-13T01:04:24;101487.03;;;23.28;52.26
79540;BME280;68991;52.122;5.406;2023-07-13T01:06:51;101476.06;;;23.28;52.44
79540;BME280;68991;52.122;5.406;2023-07-13T01:09:19;101474.34;;;23.27;52.23
79540;BME280;68991;52.122;5.406;2023-07-13T01:11:47;101473.47;;;23.26;52.49
79540;BME280;68991;52.122;5.406;2023-07-13T01:14:14;101486.31;;;23.26;52.41
79540;BME280;68991;52.122;5.406;2023-07-13T01:16:42;101481.84;;;23.25;52.51
79540;BME280;68991;52.122;5.406;2023-07-13T01:21:51;101488.31;;;23.24;52.66
79540;BME280;68991;52.122;5.406;2023-07-13T01:24:18;101491.22;;;23.22;52.14
79540;BME280;68991;52.122;5.406;2023-07-13T01:26:45;101492.09;;;23.23;52.41
79540;BME280;68991;52.122;5.406;2023-07-13T01:29:11;101493.09;;;23.22;52.51
79540;BME280;68991;52.122;5.406;2023-07-13T01:31:38;101485.88;;;23.21;52.61
79540;BME280;68991;52.122;5.406;2023-07-13T01:34:04;101490.47;;;23.20;52.60
79540;BME280;68991;52.122;5.406;2023-07-13T01:36:31;101489.66;;;23.20;52.78
79540;BME280;68991;52.122;5.406;2023-07-13T01:38:58;101499.75;;;23.19;52.68
79540;BME280;68991;52.122;5.406;2023-07-13T01:41:25;101488.78;;;23.19;52.65
79540;BME280;68991;52.122;5.406;2023-07-13T01:43:51;101494.38;;;23.18;52.94
79540;BME280;68991;52.122;5.406;2023-07-13T01:46:18;101486.16;;;23.18;52.94
79540;BME280;68991;52.122;5.406;2023-07-13T01:48:49;101494.53;;;23.16;52.84
79540;BME280;68991;52.122;5.406;2023-07-13T01:51:17;101498.28;;;23.15;52.86
79540;BME280;68991;52.122;5.406;2023-07-13T01:53:44;101495.53;;;23.15;53.11
79540;BME280;68991;52.122;5.406;2023-07-13T01:56:11;101493.81;;;23.14;53.03
79540;BME280;68991;52.122;5.406;2023-07-13T01:58:38;101495.66;;;23.14;52.97
79540;BME280;68991;52.122;5.406;2023-07-13T02:01:05;101496.69;;;23.13;52.96
79540;BME280;68991;52.122;5.406;2023-07-13T02:03:31;101502.19;;;23.13;53.20
79540;BME280;68991;52.122;5.406;2023-07-13T02:05:58;101492.22;;;23.12;52.99
79540;BME280;68991;52.122;5.406;2023-07-13T02:08:25;101491.34;;;23.11;52.98
79540;BME280;68991;52.122;5.406;2023-07-13T02:10:51;101492.34;;;23.10;53.13
79540;BME280;68991;52.122;5.406;2023-07-13T02:13:18;101499.69;;;23.10;53.04
79540;BME280;68991;52.122;5.406;2023-07-13T02:15:44;101511.72;;;23.09;52.95
79540;BME280;68991;52.122;5.406;2023-07-13T02:18:11;101509.97;;;23.08;53.20
79540;BME280;68991;52.122;5.406;2023-07-13T02:20:43;101504.47;;;23.08;53.08
79540;BME280;68991;52.122;5.406;2023-07-13T02:23:10;101505.47;;;23.07;53.06
79540;BME280;68991;52.122;5.406;2023-07-13T02:25:37;101506.50;;;23.06;53.07
79540;BME280;68991;52.122;5.406;2023-07-13T02:28:04;101501.03;;;23.06;53.26
79540;BME280;68991;52.122;5.406;2023-07-13T02:30:30;101503.91;;;23.04;53.12
79540;BME280;68991;52.122;5.406;2023-07-13T02:32:57;101504.75;;;23.05;53.46
79540;BME280;68991;52.122;5.406;2023-07-13T02:35:24;101511.25;;;23.04;53.25
79540;BME280;68991;52.122;5.406;2023-07-13T02:37:50;101504.03;;;23.03;53.39
79540;BME280;68991;52.122;5.406;2023-07-13T02:40:16;101512.41;;;23.01;53.34
79540;BME280;68991;52.122;5.406;2023-07-13T02:42:43;101520.63;;;23.01;53.21
79540;BME280;68991;52.122;5.406;2023-07-13T02:45:10;101513.41;;;23.00;53.25
79540;BME280;68991;52.122;5.406;2023-07-13T02:47:36;101509.78;;;23.00;53.44
79540;BME280;68991;52.122;5.406;2023-07-13T02:50:03;101508.06;;;22.99;53.53
79540;BME280;68991;52.122;5.406;2023-07-13T02:52:30;101508.06;;;22.99;53.73
79540;BME280;68991;52.122;5.406;2023-07-13T02:54:56;101500.84;;;22.98;53.74
79540;BME280;68991;52.122;5.406;2023-07-13T02:57:23;101506.34;;;22.98;53.50
79540;BME280;68991;52.122;5.406;2023-07-13T02:59:50;101508.19;;;22.97;53.73
79540;BME280;68991;52.122;5.406;2023-07-13T03:02:16;101514.69;;;22.96;53.47
79540;BME280;68991;52.122;5.406;2023-07-13T03:04:43;101508.31;;;22.96;53.93
79540;BME280;68991;52.122;5.406;2023-07-13T03:07:09;101512.09;;;22.95;53.60
79540;BME280;68991;52.122;5.406;2023-07-13T03:09:37;101522.19;;;22.94;53.84
79540;BME280;68991;52.122;5.406;2023-07-13T03:12:04;101520.44;;;22.93;53.64
79540;BME280;68991;52.122;5.406;2023-07-13T03:14:31;101525.94;;;22.93;53.90
79540;BME280;68991;52.122;5.406;2023-07-13T03:16:57;101526.09;;;22.92;53.78
79540;BME280;68991;52.122;5.406;2023-07-13T03:19:24;101525.22;;;22.91;53.79
79540;BME280;68991;52.122;5.406;2023-07-13T03:21:51;101519.75;;;22.91;53.99
79540;BME280;68991;52.122;5.406;2023-07-13T03:24:17;101523.19;;;22.93;53.89
79540;BME280;68991;52.122;5.406;2023-07-13T03:26:44;101515.84;;;22.94;54.12
79540;BME280;68991;52.122;5.406;2023-07-13T03:29:11;101522.19;;;22.94;54.04
79540;BME280;68991;52.122;5.406;2023-07-13T03:31:37;101522.19;;;22.94;54.00
79540;BME280;68991;52.122;5.406;2023-07-13T03:34:04;101524.16;;;22.73;53.03
79540;BME280;68991;52.122;5.406;2023-07-13T03:36:32;101534.97;;;22.54;53.17
79540;BME280;68991;52.122;5.406;2023-07-13T03:39:00;101533.63;;;22.39;53.71
79540;BME280;68991;52.122;5.406;2023-07-13T03:41:27;101541.03;;;22.27;53.54
79540;BME280;68991;52.122;5.406;2023-07-13T03:43:54;101550.91;;;22.18;54.37
79540;BME280;68991;52.122;5.406;2023-07-13T03:46:21;101545.38;;;22.09;54.42
79540;BME280;68991;52.122;5.406;2023-07-13T03:48:47;101545.91;;;22.03;54.52
79540;BME280;68991;52.122;5.406;2023-07-13T03:51:16;101546.44;;;21.97;54.71
79540;BME280;68991;52.122;5.406;2023-07-13T03:53:44;101551.28;;;21.93;54.77
79540;BME280;68991;52.122;5.406;2023-07-13T03:56:11;101553.41;;;21.90;55.16
79540;BME280;68991;52.122;5.406;2023-07-13T03:58:40;101563.63;;;21.88;54.73
79540;BME280;68991;52.122;5.406;2023-07-13T04:01:09;101570.25;;;21.85;54.93
79540;BME280;68991;52.122;5.406;2023-07-13T04:03:36;101566.63;;;21.84;55.64
79540;BME280;68991;52.122;5.406;2023-07-13T04:06:05;101564.75;;;21.96;55.31
79540;BME280;68991;52.122;5.406;2023-07-13T04:08:34;101563.06;;;22.05;55.62
79540;BME280;68991;52.122;5.406;2023-07-13T04:11:02;101569.91;;;22.10;55.40
79540;BME280;68991;52.122;5.406;2023-07-13T04:13:29;101568.59;;;22.14;54.95
79540;BME280;68991;52.122;5.406;2023-07-13T04:15:55;101575.72;;;22.17;55.16
79540;BME280;68991;52.122;5.406;2023-07-13T04:18:22;101573.69;;;22.19;55.14
79540;BME280;68991;52.122;5.406;2023-07-13T04:20:49;101578.03;;;22.21;54.85
79540;BME280;68991;52.122;5.406;2023-07-13T04:23:17;101580.66;;;22.23;54.89
79540;BME280;68991;52.122;5.406;2023-07-13T04:25:48;101575.91;;;22.25;54.88
79540;BME280;68991;52.122;5.406;2023-07-13T04:28:21;101584.88;;;22.27;55.13
79540;BME280;68991;52.122;5.406;2023-07-13T04:30:48;101576.66;;;22.27;55.21
79540;BME280;68991;52.122;5.406;2023-07-13T04:33:15;101586.47;;;22.29;55.27
79540;BME280;68991;52.122;5.406;2023-07-13T04:35:43;101589.09;;;22.31;54.90
79540;BME280;68991;52.122;5.406;2023-07-13T04:38:13;101588.06;;;22.32;54.94
79540;BME280;68991;52.122;5.406;2023-07-13T04:40:44;101581.59;;;22.33;54.98
79540;BME280;68991;52.122;5.406;2023-07-13T04:43:11;101585.06;;;22.35;55.02
79540;BME280;68991;52.122;5.406;2023-07-13T04:45:38;101590.41;;;22.37;55.03
79540;BME280;68991;52.122;5.406;2023-07-13T04:48:05;101581.19;;;22.38;54.92
79540;BME280;68991;52.122;5.406;2023-07-13T04:50:31;101584.81;;;22.38;54.94
79540;BME280;68991;52.122;5.406;2023-07-13T04:52:58;101592.88;;;22.40;54.85
79540;BME280;68991;52.122;5.406;2023-07-13T04:55:25;101584.53;;;22.41;55.00
79540;BME280;68991;52.122;5.406;2023-07-13T04:57:52;101589.84;;;22.43;55.12
79540;BME280;68991;52.122;5.406;2023-07-13T05:00:18;101574.28;;;22.43;55.16
79540;BME280;68991;52.122;5.406;2023-07-13T05:02:46;101584.25;;;22.44;55.08
79540;BME280;68991;52.122;5.406;2023-07-13T05:05:13;101585.13;;;22.45;55.30
79540;BME280;68991;52.122;5.406;2023-07-13T05:07:40;101586.88;;;22.46;54.89
79540;BME280;68991;52.122;5.406;2023-07-13T05:10:07;101583.97;;;22.47;54.98
79540;BME280;68991;52.122;5.406;2023-07-13T05:12:33;101583.88;;;22.49;55.14
79540;BME280;68991;52.122;5.406;2023-07-13T05:15:01;101589.19;;;22.50;54.90
79540;BME280;68991;52.122;5.406;2023-07-13T05:17:31;101591.81;;;22.52;55.03
79540;BME280;68991;52.122;5.406;2023-07-13T05:19:58;101597.28;;;22.52;55.03
79540;BME280;68991;52.122;5.406;2023-07-13T05:22:25;101598.16;;;22.52;55.07
79540;BME280;68991;52.122;5.406;2023-07-13T05:24:51;101600.63;;;22.55;54.88
79540;BME280;68991;52.122;5.406;2023-07-13T05:27:18;101603.38;;;22.55;55.14
79540;BME280;68991;52.122;5.406;2023-07-13T05:29:44;101603.38;;;22.55;55.06
79540;BME280;68991;52.122;5.406;2023-07-13T05:32:11;101604.09;;;22.57;55.06
79540;BME280;68991;52.122;5.406;2023-07-13T05:34:37;101606.72;;;22.59;55.07
79540;BME280;68991;52.122;5.406;2023-07-13T05:37:04;101610.31;;;22.59;55.09
79540;BME280;68991;52.122;5.406;2023-07-13T05:39:31;101615.66;;;22.61;55.10
79540;BME280;68991;52.122;5.406;2023-07-13T05:41:57;101620.13;;;22.62;55.06
79540;BME280;68991;52.122;5.406;2023-07-13T05:44:24;101614.66;;;22.62;54.94
79540;BME280;68991;52.122;5.406;2023-07-13T05:46:51;101627.38;;;22.63;54.93
79540;BME280;68991;52.122;5.406;2023-07-13T05:49:17;101620.03;;;22.63;55.17
79540;BME280;68991;52.122;5.406;2023-07-13T05:51:44;101628.09;;;22.65;54.72
79540;BME280;68991;52.122;5.406;2023-07-13T05:54:10;101628.97;;;22.65;55.04
79540;BME280;68991;52.122;5.406;2023-07-13T05:56:37;101631.69;;;22.65;54.96
79540;BME280;68991;52.122;5.406;2023-07-13T05:59:03;101634.34;;;22.67;55.03
79540;BME280;68991;52.122;5.406;2023-07-13T06:01:31;101629.72;;;22.67;55.08
79540;BME280;68991;52.122;5.406;2023-07-13T06:03:57;101636.94;;;22.68;55.27
79540;BME280;68991;52.122;5.406;2023-07-13T06:06:26;101634.09;;;22.70;54.82
79540;BME280;68991;52.122;5.406;2023-07-13T06:08:53;101642.16;;;22.71;55.15
79540;BME280;68991;52.122;5.406;2023-07-13T06:11:22;101651.25;;;22.72;55.17
79540;BME280;68991;52.122;5.406;2023-07-13T06:13:49;101656.63;;;22.73;55.16
79540;BME280;68991;52.122;5.406;2023-07-13T06:16:17;101653.00;;;22.73;55.04
79540;BME280;68991;52.122;5.406;2023-07-13T06:18:44;101654.59;;;22.75;55.15
79540;BME280;68991;52.122;5.406;2023-07-13T06:21:13;101655.47;;;22.76;55.01
79540;BME280;68991;52.122;5.406;2023-07-13T06:23:40;101661.81;;;22.76;55.14
79540;BME280;68991;52.122;5.406;2023-07-13T06:26:08;101660.69;;;22.79;55.30
79540;BME280;68991;52.122;5.406;2023-07-13T06:28:36;101665.16;;;22.80;54.79
79540;BME280;68991;52.122;5.406;2023-07-13T06:31:05;101668.78;;;22.80;54.96
79540;BME280;68991;52.122;5.406;2023-07-13T06:33:33;101672.25;;;22.83;54.92
79540;BME280;68991;52.122;5.406;2023-07-13T06:36:01;101678.59;;;22.83;54.88
79540;BME280;68991;52.122;5.406;2023-07-13T06:38:28;101674.00;;;22.84;55.03
79540;BME280;68991;52.122;5.406;2023-07-13T06:40:55;101683.81;;;22.86;55.19
79540;BME280;68991;52.122;5.406;2023-07-13T06:43:21;101673.72;;;22.87;55.21
79540;BME280;68991;52.122;5.406;2023-07-13T06:45:48;101675.47;;;22.88;55.08
79540;BME280;68991;52.122;5.406;2023-07-13T06:48:17;101674.59;;;22.87;54.88
79540;BME280;68991;52.122;5.406;2023-07-13T06:50:45;101668.09;;;22.88;55.03
79540;BME280;68991;52.122;5.406;2023-07-13T06:53:13;101673.44;;;22.90;55.41
79540;BME280;68991;52.122;5.406;2023-07-13T06:55:39;101678.81;;;22.91;55.09
79540;BME280;68991;52.122;5.406;2023-07-13T06:58:06;101675.91;;;22.93;55.12
79540;BME280;68991;52.122;5.406;2023-07-13T07:00:33;101669.44;;;22.94;55.16
79540;BME280;68991;52.122;5.406;2023-07-13T07:03:00;101678.13;;;22.99;55.01
79540;BME280;68991;52.122;5.406;2023-07-13T07:05:26;101688.06;;;23.00;54.98
79540;BME280;68991;52.122;5.406;2023-07-13T07:07:54;101698.91;;;23.01;55.03
79540;BME280;68991;52.122;5.406;2023-07-13T07:10:21;101691.56;;;23.02;54.74
79540;BME280;68991;52.122;5.406;2023-07-13T07:12:48;101689.41;;;23.05;54.94
79540;BME280;68991;52.122;5.406;2023-07-13T07:15:16;101697.50;;;23.07;54.71
79540;BME280;68991;52.122;5.406;2023-07-13T07:17:43;101701.88;;;23.09;54.75
79540;BME280;68991;52.122;5.406;2023-07-13T07:20:10;101692.59;;;23.10;54.68
79540;BME280;68991;52.122;5.406;2023-07-13T07:22:37;101706.19;;;23.12;54.90
79540;BME280;68991;52.122;5.406;2023-07-13T07:25:04;101706.19;;;23.12;55.23
79540;BME280;68991;52.122;5.406;2023-07-13T07:27:30;101708.78;;;23.13;55.33
79540;BME280;68991;52.122;5.406;2023-07-13T07:30:00;101709.66;;;23.14;54.93
79540;BME280;68991;52.122;5.406;2023-07-13T07:32:30;101713.28;;;23.14;54.84
79540;BME280;68991;52.122;5.406;2023-07-13T07:35:17;101714.16;;;23.15;55.07
79540;BME280;68991;52.122;5.406;2023-07-13T07:37:43;101709.66;;;23.14;55.22
79540;BME280;68991;52.122;5.406;2023-07-13T07:40:13;101714.16;;;23.15;55.09
79540;BME280;68991;52.122;5.406;2023-07-13T07:42:42;101703.91;;;23.17;55.27
79540;BME280;68991;52.122;5.406;2023-07-13T07:45:09;101705.66;;;23.18;55.09
79540;BME280;68991;52.122;5.406;2023-07-13T07:47:37;101701.91;;;23.19;55.25
79540;BME280;68991;52.122;5.406;2023-07-13T07:50:05;101689.19;;;23.18;55.33
79540;BME280;68991;52.122;5.406;2023-07-13T07:52:32;101691.94;;;23.18;55.23
79540;BME280;68991;52.122;5.406;2023-07-13T07:54:58;101700.03;;;23.19;55.35
79540;BME280;68991;52.122;5.406;2023-07-13T07:57:28;101682.69;;;23.19;55.37
79540;BME280;68991;52.122;5.406;2023-07-13T07:59:57;101679.97;;;23.19;55.32
79540;BME280;68991;52.122;5.406;2023-07-13T08:02:27;101686.16;;;23.21;55.39
79540;BME280;68991;52.122;5.406;2023-07-13T08:04:56;101682.41;;;23.22;55.21
79540;BME280;68991;52.122;5.406;2023-07-13T08:07:25;101681.44;;;23.23;54.98
79540;BME280;68991;52.122;5.406;2023-07-13T08:09:53;101695.84;;;23.25;55.33
79540;BME280;68991;52.122;5.406;2023-07-13T08:12:19;101697.59;;;23.26;55.34
79540;BME280;68991;52.122;5.406;2023-07-13T08:15:09;101693.88;;;23.27;55.10
79540;BME280;68991;52.122;5.406;2023-07-13T08:17:36;101700.06;;;23.29;55.33
79540;BME280;68991;52.122;5.406;2023-07-13T08:20:03;101690.84;;;23.30;55.32
79540;BME280;68991;52.122;5.406;2023-07-13T08:22:30;101686.34;;;23.29;55.36
79540;BME280;68991;52.122;5.406;2023-07-13T08:24:58;101689.09;;;23.29;55.35
79540;BME280;68991;52.122;5.406;2023-07-13T08:27:26;101697.31;;;23.29;55.21
79540;BME280;68991;52.122;5.406;2023-07-13T08:29:54;101695.34;;;23.31;55.41
79540;BME280;68991;52.122;5.406;2023-07-13T08:32:22;101698.78;;;23.33;55.16
79540;BME280;68991;52.122;5.406;2023-07-13T08:34:49;101693.19;;;23.35;55.11
79540;BME280;68991;52.122;5.406;2023-07-13T08:37:17;101689.28;;;23.37;55.23
79540;BME280;68991;52.122;5.406;2023-07-13T08:39:44;101678.16;;;23.39;54.73
79540;BME280;68991;52.122;5.406;2023-07-13T08:42:33;101690.00;;;23.39;55.06
79540;BME280;68991;52.122;5.406;2023-07-13T08:45:22;101692.75;;;23.39;54.71
79540;BME280;68991;52.122;5.406;2023-07-13T08:48:35;101684.38;;;23.41;55.06
79540;BME280;68991;52.122;5.406;2023-07-13T08:51:08;101705.97;;;23.45;54.79
79540;BME280;68991;52.122;5.406;2023-07-13T08:53:45;101715.03;;;23.46;54.75
79540;BME280;68991;52.122;5.406;2023-07-13T08:56:18;101715.91;;;23.46;54.95
79540;BME280;68991;52.122;5.406;2023-07-13T08:58:49;101723.28;;;23.46;54.80
79540;BME280;68991;52.122;5.406;2023-07-13T09:04:19;101725.19;;;23.45;54.59
79540;BME280;68991;52.122;5.406;2023-07-13T09:07:02;101722.56;;;23.44;54.70
79540;BME280;68991;52.122;5.406;2023-07-13T09:14:59;101722.28;;;23.47;54.75
79540;BME280;68991;52.122;5.406;2023-07-13T09:17:34;101724.91;;;23.48;54.70
79540;BME280;68991;52.122;5.406;2023-07-13T09:20:08;101716.66;;;23.48;54.91
79540;BME280;68991;52.122;5.406;2023-07-13T09:22:37;101714.81;;;23.49;54.83
79540;BME280;68991;52.122;5.406;2023-07-13T09:25:27;101717.38;;;23.50;54.77
79540;BME280;68991;52.122;5.406;2023-07-13T09:28:05;101712.66;;;23.52;54.39
79540;BME280;68991;52.122;5.406;2023-07-13T09:33:29;101708.75;;;23.55;54.65
79540;BME280;68991;52.122;5.406;2023-07-13T09:35:58;101714.06;;;23.56;54.71
79540;BME280;68991;52.122;5.406;2023-07-13T09:38:29;101709.19;;;23.60;54.81
79540;BME280;68991;52.122;5.406;2023-07-13T09:41:19;101708.06;;;23.62;54.42
79540;BME280;68991;52.122;5.406;2023-07-13T09:44:13;101705.03;;;23.65;54.66
79540;BME280;68991;52.122;5.406;2023-07-13T09:46:46;101717.00;;;23.64;54.59
79540;BME280;68991;52.122;5.406;2023-07-13T09:49:13;101720.03;;;23.61;54.68
79540;BME280;68991;52.122;5.406;2023-07-13T09:51:43;101732.00;;;23.60;54.72
79540;BME280;68991;52.122;5.406;2023-07-13T09:54:21;101753.25;;;23.58;54.67
79540;BME280;68991;52.122;5.406;2023-07-13T09:56:58;101777.22;;;23.56;54.52
79540;BME280;68991;52.122;5.406;2023-07-13T09:59:37;101762.66;;;23.56;54.87
79540;BME280;68991;52.122;5.406;2023-07-13T10:07:32;101754.84;;;23.61;54.80
79540;BME280;68991;52.122;5.406;2023-07-13T10:10:21;101759.66;;;23.68;54.92
79540;BME280;68991;52.122;5.406;2023-07-13T10:12:49;101753.00;;;23.71;54.66
79540;BME280;68991;52.122;5.406;2023-07-13T10:15:21;101758.38;;;23.72;54.51
79540;BME280;68991;52.122;5.406;2023-07-13T10:17:52;101759.97;;;23.75;54.50
79540;BME280;68991;52.122;5.406;2023-07-13T10:20:20;101760.84;;;23.75;54.69
79540;BME280;68991;52.122;5.406;2023-07-13T10:23:05;101762.72;;;23.75;54.68
79540;BME280;68991;52.122;5.406;2023-07-13T10:25:38;101766.47;;;23.74;54.76
79540;BME280;68991;52.122;5.406;2023-07-13T10:28:20;101762.59;;;23.76;54.69
79540;BME280;68991;52.122;5.406;2023-07-13T10:30:48;101760.28;;;23.82;54.66
79540;BME280;68991;52.122;5.406;2023-07-13T10:33:16;101752.50;;;23.87;54.29
79540;BME280;68991;52.122;5.406;2023-07-13T10:35:43;101753.22;;;23.89;54.40
79540;BME280;68991;52.122;5.406;2023-07-13T10:38:20;101755.09;;;23.88;54.61
79540;BME280;68991;52.122;5.406;2023-07-13T10:41:03;101762.63;;;23.86;54.65
79540;BME280;68991;52.122;5.406;2023-07-13T10:43:37;101770.13;;;23.84;54.58
79540;BME280;68991;52.122;5.406;2023-07-13T10:46:07;101765.47;;;23.85;54.83
79540;BME280;68991;52.122;5.406;2023-07-13T10:48:35;101768.22;;;23.85;54.52
79540;BME280;68991;52.122;5.406;2023-07-13T10:51:05;101766.06;;;23.88;54.40
79540;BME280;68991;52.122;5.406;2023-07-13T10:53:38;101767.25;;;23.95;54.40
79540;BME280;68991;52.122;5.406;2023-07-13T10:56:24;101761.06;;;24.03;54.22
79540;BME280;68991;52.122;5.406;2023-07-13T10:59:12;101767.88;;;24.08;54.61
79540;BME280;68991;52.122;5.406;2023-07-13T11:04:43;101770.41;;;24.21;54.07
79540;BME280;68991;52.122;5.406;2023-07-13T11:07:19;101771.84;;;24.25;53.74
79540;BME280;68991;52.122;5.406;2023-07-13T11:09:53;101778.66;;;24.31;53.95
79540;BME280;68991;52.122;5.406;2023-07-13T11:19:52;101780.97;;;24.35;53.33
79540;BME280;68991;52.122;5.406;2023-07-13T11:22:24;101789.50;;;24.32;53.76
79540;BME280;68991;52.122;5.406;2023-07-13T11:25:02;101780.41;;;24.32;53.84
79540;BME280;68991;52.122;5.406;2023-07-13T11:27:51;101776.06;;;24.29;53.92
79540;BME280;68991;52.122;5.406;2023-07-13T11:30:25;101771.56;;;24.28;53.91
79540;BME280;68991;52.122;5.406;2023-07-13T11:35:35;101776.63;;;24.23;53.93
79540;BME280;68991;52.122;5.406;2023-07-13T11:38:03;101780.38;;;24.22;53.84
79540;BME280;68991;52.122;5.406;2023-07-13T11:40:36;101781.38;;;24.21;53.89
79540;BME280;68991;52.122;5.406;2023-07-13T11:43:06;101794.84;;;24.24;54.01
79540;BME280;68991;52.122;5.406;2023-07-13T11:45:33;101814.97;;;24.24;53.97
79540;BME280;68991;52.122;5.406;2023-07-13T11:48:29;101805.25;;;24.20;54.23
79540;BME280;68991;52.122;5.406;2023-07-13T11:51:01;101807.28;;;24.18;54.26
79540;BME280;68991;52.122;5.406;2023-07-13T11:53:35;101803.66;;;24.18;54.04
79540;BME280;68991;52.122;5.406;2023-07-13T11:56:04;101804.66;;;24.17;54.26
79540;BME280;68991;52.122;5.406;2023-07-13T11:58:32;101812.91;;;24.17;54.16
79540;BME280;68991;52.122;5.406;2023-07-13T12:01:01;101804.94;;;24.14;54.22
79540;BME280;68991;52.122;5.406;2023-07-13T12:03:32;101816.06;;;24.12;54.35
79540;BME280;68991;52.122;5.406;2023-07-13T12:06:03;101806.94;;;24.12;54.36
79540;BME280;68991;52.122;5.406;2023-07-13T12:08:38;101804.81;;;24.15;54.47
79540;BME280;68991;52.122;5.406;2023-07-13T12:11:15;101807.00;;;24.21;54.18
79540;BME280;68991;52.122;5.406;2023-07-13T12:13:43;101805.84;;;24.24;54.20
79540;BME280;68991;52.122;5.406;2023-07-13T12:16:31;101803.38;;;24.21;54.20
79540;BME280;68991;52.122;5.406;2023-07-13T12:19:00;101803.53;;;24.19;54.56
79540;BME280;68991;52.122;5.406;2023-07-13T12:21:38;101799.16;;;24.17;54.31
79540;BME280;68991;52.122;5.406;2023-07-13T12:24:05;101803.78;;;24.16;54.66
79540;BME280;68991;52.122;5.406;2023-07-13T12:26:39;101799.44;;;24.14;54.64
79540;BME280;68991;52.122;5.406;2023-07-13T12:29:07;101800.44;;;24.13;54.45
79540;BME280;68991;52.122;5.406;2023-07-13T12:31:41;101799.44;;;24.14;54.41
79540;BME280;68991;52.122;5.406;2023-07-13T12:34:14;101809.28;;;24.16;54.39
79540;BME280;68991;52.122;5.406;2023-07-13T12:36:49;101803.53;;;24.19;54.49
79540;BME280;68991;52.122;5.406;2023-07-13T12:39:38;101803.25;;;24.32;54.20
79540;BME280;68991;52.122;5.406;2023-07-13T12:42:31;101794.16;;;24.41;54.11
79540;BME280;68991;52.122;5.406;2023-07-13T12:45:02;101796.63;;;24.44;53.66
79540;BME280;68991;52.122;5.406;2023-07-13T12:47:40;101797.06;;;24.49;53.52
79540;BME280;68991;52.122;5.406;2023-07-13T12:50:18;101792.72;;;24.47;53.55
79540;BME280;68991;52.122;5.406;2023-07-13T12:52:51;101793.56;;;24.38;54.03
79540;BME280;68991;52.122;5.406;2023-07-13T12:55:19;101796.06;;;24.41;54.06
79540;BME280;68991;52.122;5.406;2023-07-13T12:57:55;101801.84;;;24.47;53.67
79540;BME280;68991;52.122;5.406;2023-07-13T13:00:27;101796.63;;;24.54;53.45
79540;BME280;68991;52.122;5.406;2023-07-13T13:02:56;101791.44;;;24.60;53.22
79540;BME280;68991;52.122;5.406;2023-07-13T13:05:43;101796.63;;;24.54;53.47
79540;BME280;68991;52.122;5.406;2023-07-13T13:08:12;101797.34;;;24.46;53.60
79540;BME280;68991;52.122;5.406;2023-07-13T13:10:39;101793.16;;;24.42;53.78
79540;BME280;68991;52.122;5.406;2023-07-13T13:13:05;101798.81;;;24.41;53.77
79540;BME280;68991;52.122;5.406;2023-07-13T13:15:32;101794.59;;;24.46;53.68
79540;BME280;68991;52.122;5.406;2023-07-13T13:17:59;101799.81;;;24.49;53.63
79540;BME280;68991;52.122;5.406;2023-07-13T13:20:26;101792.72;;;24.47;53.61
79540;BME280;68991;52.122;5.406;2023-07-13T13:22:53;101792.84;;;24.45;53.85
79540;BME280;68991;52.122;5.406;2023-07-13T13:25:21;101804.00;;;24.44;53.71
79540;BME280;68991;52.122;5.406;2023-07-13T13:27:48;101794.00;;;24.43;54.00
79540;BME280;68991;52.122;5.406;2023-07-13T13:30:17;101802.25;;;24.43;53.83
79540;BME280;68991;52.122;5.406;2023-07-13T13:32:46;101810.63;;;24.41;54.02
79540;BME280;68991;52.122;5.406;2023-07-13T13:35:15;101808.19;;;24.38;53.88
79540;BME280;68991;52.122;5.406;2023-07-13T13:37:42;101806.47;;;24.37;53.98
79540;BME280;68991;52.122;5.406;2023-07-13T13:40:17;101811.09;;;24.37;53.77